Time;durP1;ratioP1;P1;durP2;ratioP2;P2;SDS_P1;SDS_P2;PMS_P1;PMS_P2;Temp;Humidity;BMP_temperature;BMP_pressure;BME280_temperature;BME280_humidity;BME280_pressure;Samples;Min_cycle;Max_cycle;Signal;HPM_P1;HPM_P2
2022/05/11 00:01:57;;;;;;;4.55;2.58;;;;;;;;;;4988455;28;20042;-79
2022/05/11 00:04:23;;;;;;;6.03;3.10;;;;;;;16.05;72.37;68556.88;5008454;28;20133;-80
2022/05/11 00:06:49;;;;;;;7.03;3.40;;;;;;;16.01;73.14;68552.91;5004501;28;20517;-80
2022/05/11 00:09:15;;;;;;;7.68;3.53;;;;;;;15.94;72.44;68545.50;5004452;28;20049;-79
2022/05/11 00:11:42;;;;;;;5.07;3.05;;;;;;;;;;5003640;28;20046;-79
2022/05/11 00:14:07;;;;;;;5.65;3.05;;;;;;;15.94;72.95;68545.50;5003847;28;20580;-79
2022/05/11 00:16:34;;;;;;;4.63;2.63;;;;;;;15.98;73.50;68550.06;5004810;28;20142;-80
2022/05/11 00:19:00;;;;;;;6.07;2.97;;;;;;;15.97;73.76;68542.97;4984813;28;20042;-80
2022/05/11 00:21:25;;;;;;;6.38;3.10;;;;;;;15.93;73.00;68543.78;4994356;28;20038;-78
2022/05/11 00:23:52;;;;;;;6.93;3.28;;;;;;;15.90;72.48;68543.63;4984981;28;20042;-80
2022/05/11 00:26:18;;;;;;;5.47;2.75;;;;;;;15.92;72.15;68542.66;4990599;28;20037;-82
2022/05/11 00:28:43;;;;;;;5.50;2.65;;;;;;;;;;4996696;28;20068;-80
2022/05/11 00:31:09;;;;;;;7.43;2.83;;;;;;;15.96;72.39;68547.19;4985441;28;20535;-79
2022/05/11 00:33:35;;;;;;;6.25;2.88;;;;;;;15.95;73.58;68546.63;4998411;28;20038;-78
2022/05/11 00:36:00;;;;;;;5.32;3.20;;;;;;;;;;5003613;28;20089;-78
2022/05/11 00:38:28;;;;;;;6.18;2.85;;;;;;;15.93;73.16;68544.34;4997080;28;20052;-79
2022/05/11 00:40:55;;;;;;;5.85;3.20;;;;;;;;;;4997804;28;20046;-79
2022/05/11 00:43:34;;;;;;;5.85;3.30;;;;;;;15.86;73.99;68535.81;4995878;28;20038;-79
2022/05/11 00:46:34;;;;;;;6.15;3.25;;;;;;;15.80;74.38;68532.22;4993288;28;20038;-80
2022/05/11 00:51:55;;;;;;;5.15;3.35;;;;;;;15.70;75.64;68520.81;5005312;28;20105;-80
2022/05/11 00:54:22;;;;;;;6.68;3.40;;;;;;;15.66;76.06;68508.78;4992123;28;20129;-79
2022/05/11 00:57:06;;;;;;;6.85;3.58;;;;;;;15.65;76.18;68512.41;5015805;28;20106;-80
2022/05/11 00:59:36;;;;;;;8.00;3.80;;;;;;;15.65;77.11;68515.09;4996550;28;20567;-79
2022/05/11 01:02:06;;;;;;;7.18;3.67;;;;;;;15.60;77.17;68506.75;5000396;28;20035;-79
2022/05/11 01:04:35;;;;;;;5.00;3.30;;;;;;;15.55;78.71;68502.16;5011680;28;20038;-78
2022/05/11 01:07:01;;;;;;;6.00;3.90;;;;;;;15.57;78.91;68504.44;5013595;28;20026;-79
2022/05/11 01:09:26;;;;;;;7.55;3.83;;;;;;;15.58;78.39;68505.59;4991563;28;20156;-79
2022/05/11 01:11:57;;;;;;;5.75;4.10;;;;;;;15.54;79.07;68501.03;4997081;28;20061;-80
2022/05/11 01:14:29;;;;;;;6.20;4.10;;;;;;;15.52;78.87;68498.75;5002331;28;20023;-80
2022/05/11 01:16:57;;;;;;;7.25;4.03;;;;;;;15.48;79.06;68494.19;5008981;28;20126;-80
2022/05/11 01:19:27;;;;;;;6.07;3.65;;;;;;;15.46;78.01;68497.28;5005718;28;20045;-80
2022/05/11 01:22:03;;;;;;;7.50;3.80;;;;;;;15.52;78.22;68501.44;4981855;28;20082;-80
2022/05/11 01:24:46;;;;;;;5.32;3.55;;;;;;;15.47;78.57;68485.00;5013106;28;20038;-80
2022/05/11 01:27:21;;;;;;;7.57;3.72;;;;;;;;;;4992237;28;20047;-80
2022/05/11 01:29:46;;;;;;;8.93;3.40;;;;;;;;;;4991546;28;20108;-78
2022/05/11 01:32:12;;;;;;;7.20;4.07;;;;;;;15.47;78.43;68493.06;5000061;28;20041;-79
2022/05/11 01:34:37;;;;;;;5.95;3.80;;;;;;;15.44;78.70;68489.63;5000401;28;20414;-79
2022/05/11 01:37:04;;;;;;;8.35;3.90;;;;;;;15.40;78.82;68485.09;4995314;28;20042;-79
2022/05/11 01:39:29;;;;;;;10.10;4.28;;;;;;;;;;4989958;28;20034;-79
2022/05/11 01:41:55;;;;;;;6.00;3.97;;;;;;;15.40;78.28;68479.72;4996639;28;20044;-79
2022/05/11 01:44:22;;;;;;;7.13;4.50;;;;;;;15.37;79.43;68481.66;4990335;28;20642;-80
2022/05/11 01:46:50;;;;;;;6.85;4.07;;;;;;;15.34;79.92;68478.81;4993205;28;20055;-79
2022/05/11 01:49:16;;;;;;;8.18;4.80;;;;;;;;;;4998432;28;20047;-79
2022/05/11 01:51:42;;;;;;;9.93;4.60;;;;;;;15.33;79.61;68477.09;5004945;28;20041;-79
2022/05/11 01:54:08;;;;;;;6.93;4.63;;;;;;;15.29;80.31;68467.19;5009511;28;20041;-79
2022/05/11 01:56:33;;;;;;;6.72;4.00;;;;;;;;;;5003371;28;20033;-79
2022/05/11 01:58:59;;;;;;;4.88;4.20;;;;;;;15.23;81.04;68465.72;5007475;28;20035;-79
2022/05/11 02:01:27;;;;;;;7.15;4.53;;;;;;;15.14;81.40;68450.13;4993857;28;20058;-80
2022/05/11 02:03:53;;;;;;;6.82;4.20;;;;;;;15.10;81.55;68451.47;5007595;28;20045;-79
2022/05/11 02:09:05;;;;;;;5.90;4.18;;;;;;;15.10;80.02;68451.47;5013472;28;20052;-79
2022/05/11 02:11:30;;;;;;;7.72;4.22;;;;;;;15.14;79.88;68456.03;5007873;28;20053;-79
2022/05/11 02:13:59;;;;;;;10.10;4.55;;;;;;;15.19;79.41;68461.75;4998951;28;20105;-79
2022/05/11 02:16:24;;;;;;;6.03;4.37;;;;;;;;;;5012321;28;20030;-80
2022/05/11 02:18:50;;;;;;;6.63;4.47;;;;;;;15.25;78.43;68471.25;5014650;28;20049;-79
2022/05/11 02:21:16;;;;;;;7.95;4.60;;;;;;;15.23;78.00;68468.41;5005891;28;20061;-79
2022/05/11 02:23:41;;;;;;;6.90;3.92;;;;;;;;;;5020137;28;20038;-80
2022/05/11 02:26:11;;;;;;;6.05;4.38;;;;;;;15.28;77.34;68466.06;4985689;28;20043;-79
2022/05/11 02:28:37;;;;;;;8.00;4.35;;;;;;;15.28;77.17;68471.41;4979282;28;20054;-79
2022/05/11 02:31:03;;;;;;;7.63;4.05;;;;;;;15.29;77.08;68473.13;4981623;28;20046;-80
2022/05/11 02:33:29;;;;;;;7.03;3.90;;;;;;;15.30;76.73;68473.69;5001203;28;20554;-79
2022/05/11 02:35:54;;;;;;;6.85;3.80;;;;;;;15.29;76.51;68467.75;5010733;28;20067;-79
2022/05/11 02:38:26;;;;;;;6.63;3.83;;;;;;;15.34;76.21;68478.25;4987779;28;20488;-79
2022/05/11 02:40:52;;;;;;;5.82;3.67;;;;;;;;;;4975566;28;20043;-80
2022/05/11 02:43:17;;;;;;;8.38;4.03;;;;;;;;;;4993135;28;20186;-80
2022/05/11 02:45:43;;;;;;;7.15;3.88;;;;;;;15.33;75.54;68477.69;4985504;28;20038;-80
2022/05/11 02:48:10;;;;;;;6.53;3.80;;;;;;;15.34;75.69;68473.47;4993707;28;20027;-80
2022/05/11 02:50:56;;;;;;;5.10;3.97;;;;;;;;;;4995597;28;20066;-80
2022/05/11 02:53:22;;;;;;;6.38;3.85;;;;;;;;;;4970663;28;20178;-80
2022/05/11 02:55:50;;;;;;;5.32;3.97;;;;;;;15.36;75.32;68480.50;4980589;28;20519;-80
2022/05/11 02:58:18;;;;;;;7.15;4.28;;;;;;;15.35;75.51;68479.94;4976267;28;20067;-80
2022/05/11 03:00:44;;;;;;;6.78;3.80;;;;;;;;;;4980441;28;20101;-80
2022/05/11 03:03:11;;;;;;;7.20;4.30;;;;;;;15.33;75.81;68479.78;4991517;28;20043;-78
2022/05/11 03:05:38;;;;;;;5.68;4.00;;;;;;;15.31;75.47;68470.03;4984012;28;20116;-80
2022/05/11 03:08:04;;;;;;;6.60;4.10;;;;;;;15.34;75.12;68472.88;4981211;28;20070;-79
2022/05/11 03:10:29;;;;;;;8.80;4.43;;;;;;;15.34;75.31;68478.81;4979606;28;20039;-79
2022/05/11 03:12:54;;;;;;;8.48;4.40;;;;;;;15.30;75.70;68473.69;4991740;28;20034;-79
2022/05/11 03:15:21;;;;;;;8.40;5.10;;;;;;;15.33;75.41;68480.38;4978049;28;20041;-78
2022/05/11 03:17:46;;;;;;;9.23;4.00;;;;;;;15.37;75.04;68481.66;4995188;28;20730;-79
2022/05/11 03:20:12;;;;;;;6.95;3.75;;;;;;;;;;5004769;28;20072;-79
2022/05/11 03:22:38;;;;;;;7.65;4.22;;;;;;;15.39;74.78;68483.38;4986672;28;20046;-79
2022/05/11 03:25:05;;;;;;;6.32;4.00;;;;;;;15.39;74.89;68478.00;4989658;28;20065;-79
2022/05/11 03:27:31;;;;;;;8.55;4.60;;;;;;;15.37;74.81;68483.78;4998165;28;20046;-80
2022/05/11 03:29:57;;;;;;;6.00;4.13;;;;;;;15.41;75.37;68486.22;5001672;28;20065;-79
2022/05/11 03:35:10;;;;;;;6.90;4.75;;;;;;;15.44;74.40;68492.31;4987748;28;20046;-78
2022/05/11 03:37:37;;;;;;;;;;;;;;;15.44;73.99;68489.63;4979088;28;20423;-79
2022/05/11 03:40:05;;;;;;;7.90;4.40;;;;;;;15.44;73.78;68483.69;5008366;28;19914;-79
2022/05/11 03:42:32;;;;;;;9.00;4.75;;;;;;;15.44;73.40;68489.63;5012004;28;20042;-79
2022/05/11 03:45:12;;;;;;;7.05;4.00;;;;;;;15.52;73.01;68498.75;5011087;28;20121;-79
2022/05/11 03:47:38;;;;;;;8.38;4.25;;;;;;;;;;5001133;28;20060;-78
2022/05/11 03:50:04;;;;;;;6.07;3.85;;;;;;;15.57;72.66;68499.09;4992073;28;20039;-80
2022/05/11 03:52:29;;;;;;;6.20;4.45;;;;;;;15.60;72.57;68507.31;4988288;28;20069;-79
2022/05/11 03:54:54;;;;;;;8.70;4.38;;;;;;;15.57;72.91;68504.44;4994385;28;20057;-79
2022/05/11 03:57:21;;;;;;;6.78;3.88;;;;;;;15.60;72.50;68501.94;4991046;28;20503;-78
2022/05/11 03:59:46;;;;;;;8.32;3.90;;;;;;;;;;4993968;28;20065;-78
2022/05/11 04:02:11;;;;;;;7.53;4.70;;;;;;;15.58;72.61;68505.59;4986942;28;20061;-78
2022/05/11 04:04:37;;;;;;;7.43;3.97;;;;;;;15.58;72.62;68510.94;4993640;28;20046;-80
2022/05/11 04:07:02;;;;;;;7.65;4.55;;;;;;;15.58;72.63;68505.03;4985013;28;20073;-78
2022/05/11 04:09:28;;;;;;;6.43;4.28;;;;;;;15.54;72.95;68501.03;5005115;28;20117;-79
2022/05/11 04:11:53;;;;;;;7.90;4.22;;;;;;;15.53;73.05;68499.88;5034618;23;20509;-78
2022/05/11 04:14:18;;;;;;;7.32;3.88;;;;;;;15.53;73.14;68499.88;5028857;28;20540;-77
2022/05/11 04:16:44;;;;;;;7.45;4.45;;;;;;;15.54;73.36;68500.47;5029252;28;20595;-79
2022/05/11 04:19:09;;;;;;;9.30;4.90;;;;;;;15.54;73.21;68495.66;5029807;28;20054;-77
2022/05/11 04:21:35;;;;;;;8.05;4.15;;;;;;;15.50;73.66;68499.16;5031229;28;20037;-78
2022/05/11 04:24:00;;;;;;;8.05;4.45;;;;;;;15.53;73.43;68499.31;5025022;28;20041;-78
2022/05/11 04:26:26;;;;;;;7.22;4.75;;;;;;;15.49;73.71;68500.69;5026777;28;20041;-78
2022/05/11 04:28:51;;;;;;;7.60;4.10;;;;;;;15.50;74.02;68496.47;5006398;28;20046;-78
2022/05/11 04:31:17;;;;;;;6.72;4.30;;;;;;;15.44;74.35;68489.63;5021730;28;20577;-78
2022/05/11 04:33:42;;;;;;;9.18;4.53;;;;;;;;;;5011554;28;20510;-78
2022/05/11 04:36:07;;;;;;;9.60;4.47;;;;;;;15.46;74.25;68491.91;5005799;28;20491;-78
2022/05/11 04:38:33;;;;;;;9.80;4.45;;;;;;;15.45;74.25;68490.19;5019298;28;20042;-78
2022/05/11 04:40:59;;;;;;;8.73;4.03;;;;;;;15.44;74.17;68489.63;5028550;28;20052;-78
2022/05/11 04:43:24;;;;;;;5.75;3.85;;;;;;;15.43;74.50;68487.94;5017465;28;20029;-78
2022/05/11 04:45:50;;;;;;;6.30;4.38;;;;;;;15.43;74.52;68488.50;5024351;28;20034;-78
2022/05/11 04:48:17;;;;;;;7.10;4.22;;;;;;;15.43;74.84;68491.19;5026046;28;20083;-78
2022/05/11 04:50:45;;;;;;;8.45;5.05;;;;;;;15.44;75.24;68489.63;5015987;28;20038;-78
2022/05/11 04:53:15;;;;;;;10.57;5.43;;;;;;;15.49;75.55;68495.34;5013343;28;20040;-77
2022/05/11 04:55:41;;;;;;;10.15;4.82;;;;;;;;;;5009088;28;20042;-78
2022/05/11 04:58:07;;;;;;;6.47;4.68;;;;;;;15.54;75.20;68500.47;5012657;28;20587;-78
2022/05/11 05:00:32;;;;;;;10.38;4.93;;;;;;;;;;5018054;28;20041;-78
2022/05/11 05:02:58;;;;;;;9.38;5.07;;;;;;;15.55;75.69;68504.84;5011757;28;20553;-77
2022/05/11 05:05:23;;;;;;;7.30;5.40;;;;;;;15.60;75.80;68506.75;5020372;28;20107;-78
2022/05/11 05:07:49;;;;;;;9.88;5.28;;;;;;;15.65;75.69;68512.41;5029006;28;20037;-78
2022/05/11 05:10:16;;;;;;;9.07;5.30;;;;;;;15.67;75.46;68515.28;5000727;28;20406;-78
2022/05/11 05:12:42;;;;;;;9.98;5.25;;;;;;;15.63;75.24;68515.53;4998701;28;20578;-77
2022/05/11 05:15:10;;;;;;;9.75;5.63;;;;;;;15.66;75.44;68513.56;5003596;28;20037;-78
2022/05/11 05:17:35;;;;;;;9.68;5.38;;;;;;;15.69;75.21;68512.22;5004758;28;20494;-78
2022/05/11 05:20:00;;;;;;;9.05;5.22;;;;;;;15.73;75.01;68521.56;5008461;28;20046;-78
2022/05/11 05:22:25;;;;;;;9.30;5.53;;;;;;;;;;5007057;28;20627;-78
2022/05/11 05:24:51;;;;;;;10.93;6.40;;;;;;;15.78;75.28;68521.91;5008320;28;20045;-78
2022/05/11 05:27:17;;;;;;;7.93;5.20;;;;;;;;;;5005133;28;20046;-78
2022/05/11 05:32:27;;;;;;;10.57;6.18;;;;;;;15.86;74.57;68536.38;5004891;28;20072;-77
2022/05/11 05:34:53;;;;;;;8.90;5.93;;;;;;;15.90;74.92;68540.38;5002963;28;20078;-77
2022/05/11 05:37:19;;;;;;;10.95;5.97;;;;;;;;;;5000756;28;20034;-77
2022/05/11 05:39:45;;;;;;;10.23;5.78;;;;;;;15.97;74.93;68542.97;5006774;28;20048;-78
2022/05/11 05:42:22;;;;;;;9.48;5.03;;;;;;;16.04;74.21;68556.31;5006385;28;20038;-78
2022/05/11 05:44:48;;;;;;;9.07;4.95;;;;;;;16.03;73.60;68555.19;4973683;28;20080;-79
2022/05/11 05:47:15;;;;;;;7.97;4.90;;;;;;;16.08;73.60;68563.00;5005182;28;20049;-78
2022/05/11 05:49:40;;;;;;;11.05;5.18;;;;;;;16.10;73.11;68567.97;4998427;28;20141;-78
2022/05/11 05:52:07;;;;;;;7.70;4.10;;;;;;;16.15;72.84;68570.97;5003920;28;20034;-78
2022/05/11 05:54:34;;;;;;;10.80;5.22;;;;;;;16.18;72.40;68571.72;4993185;28;20064;-77
2022/05/11 05:57:00;;;;;;;8.52;4.43;;;;;;;16.21;72.11;68577.81;5004338;28;20499;-78
2022/05/11 05:59:25;;;;;;;9.70;4.95;;;;;;;16.26;71.93;68580.28;5005566;28;20153;-78
2022/05/11 06:01:51;;;;;;;8.80;4.30;;;;;;;16.24;72.13;68584.50;5006130;28;20071;-78
2022/05/11 06:04:16;;;;;;;7.07;4.60;;;;;;;16.30;71.70;68584.81;5007240;28;20045;-79
2022/05/11 06:06:42;;;;;;;7.72;4.35;;;;;;;16.31;71.39;68586.53;5012992;28;20124;-79
2022/05/11 06:09:09;;;;;;;8.70;4.40;;;;;;;16.36;70.65;68591.66;5020098;28;20163;-79
2022/05/11 06:11:38;;;;;;;8.38;4.55;;;;;;;16.41;70.64;68592.56;5017785;28;20521;-79
2022/05/11 06:14:04;;;;;;;8.30;4.13;;;;;;;16.50;70.49;68607.63;5018363;28;20042;-79
2022/05/11 06:16:31;;;;;;;8.57;4.13;;;;;;;;;;5006243;28;20068;-78
2022/05/11 06:18:57;;;;;;;9.45;4.07;;;;;;;16.62;68.94;68626.09;5008072;28;20034;-78
2022/05/11 06:21:22;;;;;;;5.93;3.85;;;;;;;16.72;69.02;68632.16;5017272;28;20696;-77
2022/05/11 06:23:47;;;;;;;8.23;4.47;;;;;;;16.85;68.82;68646.41;5013270;28;20041;-79
2022/05/11 06:26:14;;;;;;;7.30;3.67;;;;;;;16.88;67.57;68650.41;5006825;28;20030;-79
2022/05/11 06:28:40;;;;;;;6.47;4.05;;;;;;;;;;5018033;28;20049;-79
2022/05/11 06:31:07;;;;;;;7.53;4.15;;;;;;;16.99;67.08;68662.38;5027547;28;20124;-77
2022/05/11 06:33:33;;;;;;;6.97;3.53;;;;;;;;;;5026123;28;20034;-78
2022/05/11 06:35:59;;;;;;;8.50;3.45;;;;;;;17.10;65.89;68677.06;5026794;28;20045;-78
2022/05/11 06:38:25;;;;;;;5.13;3.60;;;;;;;17.16;65.55;68675.81;5020084;28;20037;-78
2022/05/11 06:40:50;;;;;;;6.63;3.15;;;;;;;17.20;64.68;68685.75;5026591;28;20103;-78
2022/05/11 06:43:16;;;;;;;4.95;3.13;;;;;;;17.20;64.50;68680.38;5028123;28;20045;-78
2022/05/11 06:45:42;;;;;;;5.65;3.08;;;;;;;17.17;63.86;68682.34;5000008;28;20053;-77
2022/05/11 06:48:07;;;;;;;5.13;2.95;;;;;;;;;;4986490;28;20070;-79
2022/05/11 06:50:33;;;;;;;6.93;3.05;;;;;;;17.25;64.18;68691.47;5006536;28;20407;-78
2022/05/11 06:53:06;;;;;;;6.72;3.40;;;;;;;;;;5020008;28;20040;-79
2022/05/11 06:59:20;;;;;;;6.20;3.45;;;;;;;17.28;64.32;68689.50;5025350;28;20087;-78
2022/05/11 07:01:15;;;;;;;6.45;3.50;;;;;;;;;;5023943;28;20127;-78
2022/05/11 07:03:41;;;;;;;5.83;2.93;;;;;;;;;;5014321;28;20494;-78
2022/05/11 07:06:07;;;;;;;7.40;3.47;;;;;;;17.50;63.44;68710.78;5023254;28;20858;-78
2022/05/11 07:08:35;;;;;;;8.50;3.90;;;;;;;17.55;63.60;68725.13;5010397;28;20049;-78
2022/05/11 07:13:44;;;;;;;8.93;3.28;;;;;;;;;;5000021;28;20045;-77
2022/05/11 07:16:09;;;;;;;5.67;2.73;;;;;;;17.74;61.40;68738.16;5018849;28;20391;-79
2022/05/11 07:18:35;;;;;;;7.53;2.70;;;;;;;;;;4997597;28;20808;-77
2022/05/11 07:21:00;;;;;;;4.15;2.33;;;;;;;18.00;58.20;68775.38;4999014;28;20045;-77
2022/05/11 07:23:26;;;;;;;6.80;2.60;;;;;;;18.00;58.54;68767.28;4993391;28;20525;-77
2022/05/11 07:25:51;;;;;;;8.57;2.45;;;;;;;18.02;57.50;68777.66;5017694;28;20157;-79
2022/05/11 07:28:16;;;;;;;4.63;2.17;;;;;;;;;;5011486;28;20041;-77
2022/05/11 07:30:46;;;;;;;6.10;2.80;;;;;;;18.11;58.11;68792.75;5022160;28;20041;-78
2022/05/11 07:33:12;;;;;;;4.97;2.50;;;;;;;;;;5020451;28;20057;-78
2022/05/11 07:35:38;;;;;;;4.47;1.80;;;;;;;18.33;56.87;68811.34;5025543;28;20065;-79
2022/05/11 07:38:08;;;;;;;4.97;1.70;;;;;;;18.35;55.53;68808.22;5011363;28;20104;-78
2022/05/11 07:40:34;;;;;;;6.35;2.35;;;;;;;18.46;55.83;68820.78;5028066;28;20103;-77
2022/05/11 07:43:00;;;;;;;4.72;1.98;;;;;;;;;;5026330;28;20041;-78
2022/05/11 07:45:26;;;;;;;4.45;1.90;;;;;;;;;;5022300;28;20115;-77
2022/05/11 07:47:51;;;;;;;5.88;2.08;;;;;;;18.37;55.29;68807.81;5027631;28;20506;-78
2022/05/11 07:50:17;;;;;;;5.18;1.85;;;;;;;18.33;55.95;68806.53;5028370;28;20065;-77
2022/05/11 07:52:43;;;;;;;7.32;2.17;;;;;;;;;;5028718;28;20051;-78
2022/05/11 07:55:09;;;;;;;3.88;1.75;;;;;;;18.54;54.89;68826.66;5025170;28;20053;-78
2022/05/11 08:00:19;;;;;;;4.55;1.88;;;;;;;18.69;55.35;68852.44;5011548;28;20049;-77
2022/05/11 08:02:44;;;;;;;4.78;1.60;;;;;;;18.85;53.90;68864.22;5019354;28;20038;-78
2022/05/11 08:05:13;;;;;;;3.97;1.60;;;;;;;18.66;54.49;68843.63;5028894;28;20517;-78
2022/05/11 08:07:42;;;;;;;5.55;1.70;;;;;;;18.76;55.37;68854.50;5023198;28;20054;-78
2022/05/11 08:10:12;;;;;;;7.00;2.05;;;;;;;18.82;54.72;68860.78;5020247;28;20678;-79
2022/05/11 08:12:38;;;;;;;3.65;2.20;;;;;;;18.83;55.35;68861.91;5008997;28;20052;-77
2022/05/11 08:15:04;;;;;;;3.28;1.80;;;;;;;18.91;55.30;68871.06;5010046;28;20037;-78
2022/05/11 08:17:31;;;;;;;8.18;1.80;;;;;;;;;;5008808;28;20044;-79
2022/05/11 08:19:59;;;;;;;8.23;1.85;;;;;;;19.19;54.76;68901.91;5029962;28;20568;-79
2022/05/11 08:22:25;;;;;;;5.03;1.90;;;;;;;19.10;54.77;68898.16;5027725;28;20570;-79
2022/05/11 08:24:51;;;;;;;6.70;2.22;;;;;;;18.97;55.43;68877.91;5016614;28;20048;-78
2022/05/11 08:27:18;;;;;;;4.72;2.17;;;;;;;;;;5024702;28;20045;-78
2022/05/11 08:35:11;;;;;;;7.60;2.53;;;;;;;19.10;55.71;68898.16;5027423;28;20049;-79
2022/05/11 08:37:37;;;;;;;6.78;2.50;;;;;;;19.03;56.71;68881.50;4993157;28;20038;-78
2022/05/11 08:40:03;;;;;;;9.80;2.45;;;;;;;19.15;56.90;68897.91;5027824;28;20402;-78
2022/05/11 08:42:30;;;;;;;4.97;2.03;;;;;;;;;;5026411;28;20049;-80
2022/05/11 08:44:56;;;;;;;7.05;2.70;;;;;;;19.29;56.54;68918.72;5021715;28;20041;-78
2022/05/11 08:47:28;;;;;;;5.75;2.40;;;;;;;19.29;56.19;68918.72;5028720;28;20548;-78
2022/05/11 08:49:56;;;;;;;5.43;2.90;;;;;;;;;;5008498;28;20042;-78
2022/05/11 08:52:26;;;;;;;4.67;2.87;;;;;;;;;;4990633;28;20042;-78
2022/05/11 08:55:06;;;;;;;6.10;2.53;;;;;;;;;;5007067;28;20512;-79
2022/05/11 08:57:33;;;;;;;5.25;2.30;;;;;;;19.36;56.50;68921.31;5005226;28;20049;-77
2022/05/11 09:00:10;;;;;;;4.90;2.53;;;;;;;19.35;56.70;68926.16;5010400;28;20037;-79
2022/05/11 09:02:52;;;;;;;6.65;2.90;;;;;;;;;;5016498;28;20037;-77
2022/05/11 09:05:23;;;;;;;5.38;2.70;;;;;;;19.60;56.69;68948.19;5011127;28;20037;-78
2022/05/11 09:07:53;;;;;;;10.45;2.83;;;;;;;19.45;56.42;68928.91;5003380;28;20292;-79
2022/05/11 09:10:22;;;;;;;5.88;2.72;;;;;;;19.41;56.29;68926.47;5008609;28;20407;-78
2022/05/11 09:12:52;;;;;;;7.77;2.80;;;;;;;19.50;56.07;68942.72;5006118;28;20122;-78
2022/05/11 09:15:18;;;;;;;6.03;2.75;;;;;;;19.61;56.36;68949.88;5000111;28;20475;-77
2022/05/11 09:17:44;;;;;;;6.25;2.58;;;;;;;19.75;56.07;68970.75;5000789;28;20513;-79
2022/05/11 09:20:12;;;;;;;4.85;2.45;;;;;;;;;;5007230;28;20155;-78
2022/05/11 09:22:42;;;;;;;5.20;2.47;;;;;;;19.66;55.05;68954.50;5006571;28;20069;-78
2022/05/11 09:25:16;;;;;;;5.00;2.60;;;;;;;;;;5007928;28;20045;-78
2022/05/11 09:27:42;;;;;;;9.68;3.33;;;;;;;19.62;56.15;68950.44;5006104;28;20525;-78
2022/05/11 09:30:16;;;;;;;9.15;3.10;;;;;;;19.81;56.20;68971.63;5001643;28;20126;-78
2022/05/11 09:32:45;;;;;;;6.78;2.63;;;;;;;;;;4993877;28;20069;-79
2022/05/11 09:35:19;;;;;;;4.95;3.00;;;;;;;;;;5004481;28;20042;-78
2022/05/11 09:37:54;;;;;;;6.43;3.38;;;;;;;19.91;55.80;68983.06;5000391;28;20046;-78
2022/05/11 09:40:21;;;;;;;5.80;3.47;;;;;;;19.87;55.99;68975.78;5004241;28;20052;-78
2022/05/11 09:43:02;;;;;;;5.30;3.50;;;;;;;20.02;56.14;68995.63;5004450;28;20042;-78
2022/05/11 09:45:59;;;;;;;7.20;3.95;;;;;;;20.12;56.10;69006.50;4987825;28;20038;-78
2022/05/11 09:48:31;;;;;;;10.05;3.90;;;;;;;19.96;55.77;68988.19;4987022;28;20543;-78
2022/05/11 09:51:24;;;;;;;6.70;3.08;;;;;;;20.03;55.91;68996.78;4988929;28;20089;-79
2022/05/11 09:54:17;;;;;;;9.90;3.55;;;;;;;20.08;56.27;69001.91;4989011;28;20068;-78
2022/05/11 09:56:49;;;;;;;9.82;3.42;;;;;;;20.02;55.48;68995.06;5003010;28;20034;-78
2022/05/11 09:59:25;;;;;;;7.72;3.65;;;;;;;19.93;56.03;68982.06;5007345;28;20045;-79
2022/05/11 10:02:28;;;;;;;8.82;3.95;;;;;;;20.09;55.58;69002.50;5006969;28;20038;-79
2022/05/11 10:05:02;;;;;;;8.10;3.63;;;;;;;;;;5008044;28;20048;-78
2022/05/11 10:07:33;;;;;;;8.30;3.50;;;;;;;20.17;55.81;69017.03;4987455;28;20046;-79
2022/05/11 10:10:09;;;;;;;7.93;3.78;;;;;;;;;;5015293;28;20414;-79
2022/05/11 10:12:39;;;;;;;9.38;3.63;;;;;;;20.21;55.26;69016.22;5018039;23;20079;-78
2022/05/11 10:23:53;;;;;;;9.68;3.63;;;;;;;;;;4991492;28;20093;-80
2022/05/11 10:26:27;;;;;;;6.55;3.20;;;;;;;20.33;54.92;69029.94;4974076;28;20039;-80
2022/05/11 10:29:19;;;;;;;9.00;3.70;;;;;;;20.46;55.73;69042.09;4984475;28;20046;-80
2022/05/11 10:32:04;;;;;;;6.30;3.58;;;;;;;;;;5002707;28;20081;-80
2022/05/11 10:34:53;;;;;;;6.80;4.30;;;;;;;;;;5007934;28;20165;-79
2022/05/11 10:37:35;;;;;;;8.27;4.13;;;;;;;20.49;54.05;69053.63;4989033;28;20043;-80
2022/05/11 10:40:00;;;;;;;12.57;4.20;;;;;;;;;;4993871;28;20042;-80
2022/05/11 10:42:36;;;;;;;8.97;4.10;;;;;;;;;;4990069;28;20106;-80
2022/05/11 10:45:21;;;;;;;8.52;3.72;;;;;;;;;;5006275;28;20044;-79
2022/05/11 10:48:03;;;;;;;8.90;4.07;;;;;;;20.85;53.40;69088.28;4988104;28;20058;-80
2022/05/11 10:51:06;;;;;;;9.20;3.97;;;;;;;20.90;54.38;69094.00;5001769;28;20442;-79
2022/05/11 10:53:32;;;;;;;9.95;4.25;;;;;;;;;;4998446;28;20046;-80
2022/05/11 10:56:23;;;;;;;8.63;4.55;;;;;;;20.66;53.27;69066.56;4986398;28;20034;-78
2022/05/11 10:59:14;;;;;;;8.20;4.20;;;;;;;21.02;53.95;69112.00;4990732;28;20052;-77
2022/05/11 11:01:45;;;;;;;11.80;4.57;;;;;;;;;;4989225;28;20074;-78
2022/05/11 11:04:27;;;;;;;7.78;4.07;;;;;;;21.10;52.85;69115.72;5003822;28;20101;-80
2022/05/11 11:07:14;;;;;;;7.82;4.25;;;;;;;21.09;52.82;69114.56;5013753;28;20080;-78
2022/05/11 11:10:16;;;;;;;7.88;4.25;;;;;;;21.24;52.09;69129.03;5007008;28;20041;-80
2022/05/11 11:12:51;;;;;;;6.68;3.80;;;;;;;21.21;50.45;69127.75;5009355;28;20384;-79
2022/05/11 11:15:18;;;;;;;5.70;4.15;;;;;;;;;;5014672;28;20045;-80
2022/05/11 11:17:46;;;;;;;6.97;3.80;;;;;;;21.11;51.03;69116.88;5018871;28;20043;-78
2022/05/11 11:20:17;;;;;;;7.70;3.72;;;;;;;21.28;50.17;69133.03;4989262;28;20034;-80
2022/05/11 11:23:01;;;;;;;9.40;4.22;;;;;;;;;;4996647;28;20118;-81
2022/05/11 11:25:28;;;;;;;9.82;3.75;;;;;;;21.20;49.92;69124.44;4991798;28;20043;-80
2022/05/11 11:27:59;;;;;;;9.05;3.40;;;;;;;21.12;49.07;69115.31;5008932;28;20136;-80
2022/05/11 11:30:26;;;;;;;6.68;3.50;;;;;;;21.31;48.64;69139.75;5014331;28;20042;-79
2022/05/11 11:33:13;;;;;;;8.00;4.00;;;;;;;;;;5014720;28;20038;-80
2022/05/11 11:35:41;;;;;;;8.00;3.47;;;;;;;21.50;49.35;69160.94;5006240;28;20129;-81
2022/05/11 11:38:07;;;;;;;6.72;3.33;;;;;;;21.49;48.67;69159.81;4994377;28;20061;-80
2022/05/11 11:40:34;;;;;;;7.22;3.20;;;;;;;21.63;47.72;69175.81;4993088;28;20034;-79
2022/05/11 11:43:38;;;;;;;6.93;3.60;;;;;;;;;;4995690;28;20745;-79
2022/05/11 11:45:49;;;;;;;10.10;3.28;;;;;;;21.75;46.78;69194.41;4995410;28;20049;-80
2022/05/11 11:48:15;;;;;;;5.63;3.17;;;;;;;;;;5009377;28;20039;-81
2022/05/11 11:50:47;;;;;;;10.90;3.37;;;;;;;;;;5011974;28;20056;-79
2022/05/11 11:53:21;;;;;;;6.47;3.33;;;;;;;22.09;45.89;69226.75;5014691;28;20038;-81
2022/05/11 11:55:47;;;;;;;8.73;3.50;;;;;;;22.00;45.36;69222.44;5009623;28;20044;-81
2022/05/11 11:58:20;;;;;;;7.72;3.58;;;;;;;21.78;46.82;69192.44;5030819;28;20038;-80
2022/05/11 12:00:45;;;;;;;8.05;3.15;;;;;;;;;;5015468;28;20077;-81
2022/05/11 12:03:22;;;;;;;9.50;3.17;;;;;;;22.09;45.07;69226.75;5014023;28;20061;-81
2022/05/11 12:05:51;;;;;;;5.82;2.42;;;;;;;22.08;44.64;69225.63;5013797;28;20484;-81
2022/05/11 12:17:30;;;;;;;7.05;3.20;;;;;;;22.38;43.21;69258.84;4924203;29;20111;-81
2022/05/11 12:19:59;;;;;;;7.57;2.85;;;;;;;22.36;43.92;69251.69;4935931;29;20068;-80
2022/05/11 12:22:25;;;;;;;8.88;3.60;;;;;;;22.55;43.75;69277.72;4968744;28;20053;-81
2022/05/11 12:24:57;;;;;;;7.90;3.30;;;;;;;22.81;44.20;69306.94;4996904;28;20523;-80
2022/05/11 12:27:32;;;;;;;7.90;3.58;;;;;;;22.67;43.58;69283.31;4995429;28;20092;-80
2022/05/11 12:30:05;;;;;;;7.80;3.08;;;;;;;22.82;43.87;69308.09;5013483;28;20037;-80
2022/05/11 12:32:35;;;;;;;8.60;3.22;;;;;;;22.61;42.58;69281.88;5015235;28;20038;-80
2022/05/11 12:35:18;;;;;;;10.35;2.80;;;;;;;22.65;43.16;69289.75;5015932;28;20046;-80
2022/05/11 12:37:59;;;;;;;8.02;2.78;;;;;;;22.82;43.92;69308.66;5014376;28;20061;-79
2022/05/11 12:40:27;;;;;;;10.05;2.63;;;;;;;23.14;42.67;69341.47;5014796;28;20048;-81
2022/05/11 12:42:56;;;;;;;7.07;2.92;;;;;;;22.90;41.86;69314.53;5015372;28;20389;-80
2022/05/11 12:45:25;;;;;;;;;;;;;;;23.12;42.81;69342.47;5012374;28;20046;-79
2022/05/11 12:47:56;;;;;;;7.45;3.08;;;;;;;23.08;41.95;69332.47;4997864;28;19913;-80
2022/05/11 12:50:27;;;;;;;7.72;2.90;;;;;;;23.18;42.74;69337.91;5013345;28;20045;-80
2022/05/11 12:53:16;;;;;;;9.32;2.83;;;;;;;23.04;43.06;69330.59;5009491;28;20658;-81
2022/05/11 12:55:44;;;;;;;7.90;2.30;;;;;;;;;;5009251;28;20046;-81
2022/05/11 12:58:18;;;;;;;4.68;2.60;;;;;;;23.44;40.88;69375.28;5002185;28;20392;-81
2022/05/11 13:00:44;;;;;;;7.70;2.55;;;;;;;23.25;41.22;69356.22;4993694;28;20839;-79
2022/05/11 13:03:31;;;;;;;10.40;2.25;;;;;;;23.42;42.03;69370.84;5011975;28;20072;-79